sensor_id;sensor_type;location;lat;lon;timestamp;P1;durP1;ratioP1;P2;durP2;ratioP2
10005;SDS011;5042;42.626;23.382;2023-08-08T00:01:08;0.70;;;0.70;;
10005;SDS011;5042;42.626;23.382;2023-08-08T00:03:34;0.90;;;0.90;;
10005;SDS011;5042;42.626;23.382;2023-08-08T00:06:01;0.85;;;0.70;;
10005;SDS011;5042;42.626;23.382;2023-08-08T00:08:28;0.70;;;0.70;;
10005;SDS011;5042;42.626;23.382;2023-08-08T00:10:56;0.82;;;0.82;;
10005;SDS011;5042;42.626;23.382;2023-08-08T00:13:23;0.90;;;0.90;;
10005;SDS011;5042;42.626;23.382;2023-08-08T00:15:49;0.93;;;0.93;;
10005;SDS011;5042;42.626;23.382;2023-08-08T00:18:16;1.13;;;1.10;;
10005;SDS011;5042;42.626;23.382;2023-08-08T00:20:42;0.95;;;0.90;;
10005;SDS011;5042;42.626;23.382;2023-08-08T00:23:09;1.10;;;1.00;;
10005;SDS011;5042;42.626;23.382;2023-08-08T00:25:36;0.90;;;0.90;;
10005;SDS011;5042;42.626;23.382;2023-08-08T00:28:04;0.80;;;0.80;;
10005;SDS011;5042;42.626;23.382;2023-08-08T00:30:31;1.00;;;1.00;;
10005;SDS011;5042;42.626;23.382;2023-08-08T00:32:58;1.02;;;0.93;;
10005;SDS011;5042;42.626;23.382;2023-08-08T00:35:25;1.15;;;1.00;;
10005;SDS011;5042;42.626;23.382;2023-08-08T00:37:51;1.17;;;1.17;;
10005;SDS011;5042;42.626;23.382;2023-08-08T00:40:18;1.17;;;1.15;;
10005;SDS011;5042;42.626;23.382;2023-08-08T00:42:45;1.20;;;1.10;;
10005;SDS011;5042;42.626;23.382;2023-08-08T00:45:13;1.20;;;1.15;;
10005;SDS011;5042;42.626;23.382;2023-08-08T00:47:40;1.00;;;1.00;;
10005;SDS011;5042;42.626;23.382;2023-08-08T00:50:07;1.10;;;1.10;;
10005;SDS011;5042;42.626;23.382;2023-08-08T00:52:36;1.45;;;1.35;;
10005;SDS011;5042;42.626;23.382;2023-08-08T00:55:05;1.30;;;1.20;;
10005;SDS011;5042;42.626;23.382;2023-08-08T00:57:33;1.40;;;1.30;;
10005;SDS011;5042;42.626;23.382;2023-08-08T01:00:03;1.33;;;1.30;;
10005;SDS011;5042;42.626;23.382;2023-08-08T01:02:33;1.42;;;1.40;;
10005;SDS011;5042;42.626;23.382;2023-08-08T01:04:59;1.25;;;1.20;;
10005;SDS011;5042;42.626;23.382;2023-08-08T01:07:29;1.42;;;1.38;;
10005;SDS011;5042;42.626;23.382;2023-08-08T01:10:02;1.38;;;1.38;;
10005;SDS011;5042;42.626;23.382;2023-08-08T01:12:33;1.77;;;1.58;;
10005;SDS011;5042;42.626;23.382;2023-08-08T01:15:05;1.35;;;1.35;;
10005;SDS011;5042;42.626;23.382;2023-08-08T01:17:35;1.55;;;1.45;;
10005;SDS011;5042;42.626;23.382;2023-08-08T01:20:03;1.83;;;1.73;;
10005;SDS011;5042;42.626;23.382;2023-08-08T01:22:35;1.57;;;1.40;;
10005;SDS011;5042;42.626;23.382;2023-08-08T01:25:07;1.23;;;1.23;;
10005;SDS011;5042;42.626;23.382;2023-08-08T01:27:35;1.67;;;1.58;;
10005;SDS011;5042;42.626;23.382;2023-08-08T01:30:03;1.90;;;1.80;;
10005;SDS011;5042;42.626;23.382;2023-08-08T01:32:30;3.25;;;1.50;;
10005;SDS011;5042;42.626;23.382;2023-08-08T01:34:57;1.30;;;1.30;;
10005;SDS011;5042;42.626;23.382;2023-08-08T01:37:24;1.30;;;1.30;;
10005;SDS011;5042;42.626;23.382;2023-08-08T01:39:57;1.10;;;1.10;;
10005;SDS011;5042;42.626;23.382;2023-08-08T01:42:26;1.40;;;1.30;;
10005;SDS011;5042;42.626;23.382;2023-08-08T01:44:53;1.63;;;1.30;;
10005;SDS011;5042;42.626;23.382;2023-08-08T01:47:21;1.50;;;1.40;;
10005;SDS011;5042;42.626;23.382;2023-08-08T01:49:48;1.43;;;1.33;;
10005;SDS011;5042;42.626;23.382;2023-08-08T01:52:15;1.30;;;1.30;;
10005;SDS011;5042;42.626;23.382;2023-08-08T01:54:41;1.60;;;1.50;;
10005;SDS011;5042;42.626;23.382;2023-08-08T01:57:08;1.35;;;1.25;;
10005;SDS011;5042;42.626;23.382;2023-08-08T01:59:36;1.60;;;1.50;;
10005;SDS011;5042;42.626;23.382;2023-08-08T02:02:03;1.70;;;1.60;;
10005;SDS011;5042;42.626;23.382;2023-08-08T02:04:30;1.70;;;1.60;;
10005;SDS011;5042;42.626;23.382;2023-08-08T02:06:57;1.48;;;1.40;;
10005;SDS011;5042;42.626;23.382;2023-08-08T02:09:23;1.58;;;1.48;;
10005;SDS011;5042;42.626;23.382;2023-08-08T02:11:50;1.50;;;1.40;;
10005;SDS011;5042;42.626;23.382;2023-08-08T02:14:17;1.50;;;1.40;;
10005;SDS011;5042;42.626;23.382;2023-08-08T02:16:45;1.70;;;1.60;;
10005;SDS011;5042;42.626;23.382;2023-08-08T02:19:11;1.73;;;1.63;;
10005;SDS011;5042;42.626;23.382;2023-08-08T02:21:38;2.53;;;1.48;;
10005;SDS011;5042;42.626;23.382;2023-08-08T02:24:05;2.37;;;1.60;;
10005;SDS011;5042;42.626;23.382;2023-08-08T02:26:32;1.70;;;1.60;;
10005;SDS011;5042;42.626;23.382;2023-08-08T02:28:58;1.63;;;1.53;;
10005;SDS011;5042;42.626;23.382;2023-08-08T02:31:25;1.70;;;1.60;;
10005;SDS011;5042;42.626;23.382;2023-08-08T02:33:53;1.60;;;1.50;;
10005;SDS011;5042;42.626;23.382;2023-08-08T02:36:20;1.50;;;1.40;;
10005;SDS011;5042;42.626;23.382;2023-08-08T02:38:47;1.70;;;1.60;;
10005;SDS011;5042;42.626;23.382;2023-08-08T02:41:14;1.77;;;1.67;;
10005;SDS011;5042;42.626;23.382;2023-08-08T02:43:41;1.77;;;1.67;;
10005;SDS011;5042;42.626;23.382;2023-08-08T02:46:08;1.90;;;1.80;;
10005;SDS011;5042;42.626;23.382;2023-08-08T02:48:34;1.90;;;1.80;;
10005;SDS011;5042;42.626;23.382;2023-08-08T02:51:02;1.63;;;1.57;;
10005;SDS011;5042;42.626;23.382;2023-08-08T02:53:29;2.05;;;1.95;;
10005;SDS011;5042;42.626;23.382;2023-08-08T02:55:56;1.88;;;1.77;;
10005;SDS011;5042;42.626;23.382;2023-08-08T02:58:22;2.00;;;1.90;;
10005;SDS011;5042;42.626;23.382;2023-08-08T03:00:49;2.30;;;2.20;;
10005;SDS011;5042;42.626;23.382;2023-08-08T03:03:16;1.93;;;1.83;;
10005;SDS011;5042;42.626;23.382;2023-08-08T03:05:43;2.20;;;2.10;;
10005;SDS011;5042;42.626;23.382;2023-08-08T03:08:11;2.30;;;2.10;;
10005;SDS011;5042;42.626;23.382;2023-08-08T03:10:38;2.60;;;2.40;;
10005;SDS011;5042;42.626;23.382;2023-08-08T03:13:06;2.20;;;2.10;;
10005;SDS011;5042;42.626;23.382;2023-08-08T03:15:32;2.40;;;2.30;;
10005;SDS011;5042;42.626;23.382;2023-08-08T03:18:00;2.00;;;1.90;;
10005;SDS011;5042;42.626;23.382;2023-08-08T03:20:27;2.67;;;2.47;;
10005;SDS011;5042;42.626;23.382;2023-08-08T03:22:53;2.47;;;2.38;;
10005;SDS011;5042;42.626;23.382;2023-08-08T03:25:21;2.30;;;2.20;;
10005;SDS011;5042;42.626;23.382;2023-08-08T03:27:48;2.88;;;2.67;;
10005;SDS011;5042;42.626;23.382;2023-08-08T03:30:15;2.40;;;2.30;;
10005;SDS011;5042;42.626;23.382;2023-08-08T03:32:41;2.80;;;2.60;;
10005;SDS011;5042;42.626;23.382;2023-08-08T03:35:08;2.33;;;2.23;;
10005;SDS011;5042;42.626;23.382;2023-08-08T03:37:35;2.42;;;2.33;;
10005;SDS011;5042;42.626;23.382;2023-08-08T03:40:02;3.00;;;2.70;;
10005;SDS011;5042;42.626;23.382;2023-08-08T03:42:30;3.13;;;2.78;;
10005;SDS011;5042;42.626;23.382;2023-08-08T03:44:57;3.10;;;2.90;;
10005;SDS011;5042;42.626;23.382;2023-08-08T03:47:24;2.87;;;2.67;;
10005;SDS011;5042;42.626;23.382;2023-08-08T03:49:51;3.15;;;2.95;;
10005;SDS011;5042;42.626;23.382;2023-08-08T03:52:20;2.57;;;2.47;;
10005;SDS011;5042;42.626;23.382;2023-08-08T03:54:47;3.20;;;2.90;;
10005;SDS011;5042;42.626;23.382;2023-08-08T03:57:13;2.90;;;2.70;;
10005;SDS011;5042;42.626;23.382;2023-08-08T03:59:41;3.33;;;3.13;;
10005;SDS011;5042;42.626;23.382;2023-08-08T04:02:08;3.10;;;2.90;;
10005;SDS011;5042;42.626;23.382;2023-08-08T04:04:35;3.00;;;2.80;;
10005;SDS011;5042;42.626;23.382;2023-08-08T04:07:01;3.08;;;2.88;;
10005;SDS011;5042;42.626;23.382;2023-08-08T04:09:28;3.25;;;3.03;;
10005;SDS011;5042;42.626;23.382;2023-08-08T04:11:55;2.47;;;2.28;;
10005;SDS011;5042;42.626;23.382;2023-08-08T04:14:21;3.13;;;2.92;;
10005;SDS011;5042;42.626;23.382;2023-08-08T04:16:50;3.13;;;2.83;;
10005;SDS011;5042;42.626;23.382;2023-08-08T04:19:16;3.03;;;2.83;;
10005;SDS011;5042;42.626;23.382;2023-08-08T04:21:43;3.20;;;3.00;;
10005;SDS011;5042;42.626;23.382;2023-08-08T04:24:10;3.72;;;3.33;;
10005;SDS011;5042;42.626;23.382;2023-08-08T04:26:37;3.37;;;3.10;;
10005;SDS011;5042;42.626;23.382;2023-08-08T04:29:04;3.95;;;3.65;;
10005;SDS011;5042;42.626;23.382;2023-08-08T04:31:31;3.60;;;3.30;;
10005;SDS011;5042;42.626;23.382;2023-08-08T04:33:59;3.30;;;3.10;;
10005;SDS011;5042;42.626;23.382;2023-08-08T04:36:26;3.10;;;2.90;;
10005;SDS011;5042;42.626;23.382;2023-08-08T04:38:53;3.33;;;3.10;;
10005;SDS011;5042;42.626;23.382;2023-08-08T04:41:20;3.28;;;3.08;;
10005;SDS011;5042;42.626;23.382;2023-08-08T04:43:47;3.58;;;3.30;;
10005;SDS011;5042;42.626;23.382;2023-08-08T04:46:13;3.53;;;3.30;;
10005;SDS011;5042;42.626;23.382;2023-08-08T04:48:40;3.40;;;3.20;;
10005;SDS011;5042;42.626;23.382;2023-08-08T04:51:08;3.40;;;3.20;;
10005;SDS011;5042;42.626;23.382;2023-08-08T04:53:35;3.33;;;3.13;;
10005;SDS011;5042;42.626;23.382;2023-08-08T04:56:02;3.10;;;2.90;;
10005;SDS011;5042;42.626;23.382;2023-08-08T04:58:29;3.30;;;3.00;;
10005;SDS011;5042;42.626;23.382;2023-08-08T05:00:55;3.47;;;3.17;;
10005;SDS011;5042;42.626;23.382;2023-08-08T05:03:22;3.25;;;2.95;;
10005;SDS011;5042;42.626;23.382;2023-08-08T05:05:49;2.95;;;2.75;;
10005;SDS011;5042;42.626;23.382;2023-08-08T05:08:17;3.97;;;3.13;;
10005;SDS011;5042;42.626;23.382;2023-08-08T05:10:43;3.20;;;2.92;;
10005;SDS011;5042;42.626;23.382;2023-08-08T05:13:10;3.75;;;3.45;;
10005;SDS011;5042;42.626;23.382;2023-08-08T05:15:37;3.42;;;3.13;;
10005;SDS011;5042;42.626;23.382;2023-08-08T05:18:04;3.60;;;3.30;;
10005;SDS011;5042;42.626;23.382;2023-08-08T05:20:31;3.72;;;3.05;;
10005;SDS011;5042;42.626;23.382;2023-08-08T05:22:57;3.13;;;2.92;;
10005;SDS011;5042;42.626;23.382;2023-08-08T05:25:25;3.97;;;3.15;;
10005;SDS011;5042;42.626;23.382;2023-08-08T05:27:52;5.65;;;3.13;;
10005;SDS011;5042;42.626;23.382;2023-08-08T05:30:19;2.85;;;2.65;;
10005;SDS011;5042;42.626;23.382;2023-08-08T05:32:46;2.85;;;2.65;;
10005;SDS011;5042;42.626;23.382;2023-08-08T05:35:13;3.63;;;2.80;;
10005;SDS011;5042;42.626;23.382;2023-08-08T05:37:40;3.25;;;2.95;;
10005;SDS011;5042;42.626;23.382;2023-08-08T05:40:07;2.80;;;2.40;;
10005;SDS011;5042;42.626;23.382;2023-08-08T05:42:36;3.25;;;2.63;;
10005;SDS011;5042;42.626;23.382;2023-08-08T05:45:03;2.42;;;2.30;;
10005;SDS011;5042;42.626;23.382;2023-08-08T05:47:31;2.40;;;2.30;;
10005;SDS011;5042;42.626;23.382;2023-08-08T05:49:58;2.35;;;2.22;;
10005;SDS011;5042;42.626;23.382;2023-08-08T05:52:24;2.17;;;2.08;;
10005;SDS011;5042;42.626;23.382;2023-08-08T05:54:51;1.90;;;1.80;;
10005;SDS011;5042;42.626;23.382;2023-08-08T05:57:18;2.38;;;2.28;;
10005;SDS011;5042;42.626;23.382;2023-08-08T05:59:47;2.20;;;2.10;;
10005;SDS011;5042;42.626;23.382;2023-08-08T06:02:15;1.90;;;1.80;;
10005;SDS011;5042;42.626;23.382;2023-08-08T06:04:42;2.25;;;2.15;;
10005;SDS011;5042;42.626;23.382;2023-08-08T06:07:08;2.38;;;2.28;;
10005;SDS011;5042;42.626;23.382;2023-08-08T06:09:36;2.30;;;2.20;;
10005;SDS011;5042;42.626;23.382;2023-08-08T06:12:03;3.10;;;2.90;;
10005;SDS011;5042;42.626;23.382;2023-08-08T06:14:30;2.83;;;2.63;;
10005;SDS011;5042;42.626;23.382;2023-08-08T06:16:58;3.00;;;2.80;;
10005;SDS011;5042;42.626;23.382;2023-08-08T06:19:25;3.03;;;2.83;;
10005;SDS011;5042;42.626;23.382;2023-08-08T06:21:52;3.17;;;2.97;;
10005;SDS011;5042;42.626;23.382;2023-08-08T06:24:18;2.45;;;2.35;;
10005;SDS011;5042;42.626;23.382;2023-08-08T06:26:45;3.17;;;2.88;;
10005;SDS011;5042;42.626;23.382;2023-08-08T06:29:12;2.20;;;2.10;;
10005;SDS011;5042;42.626;23.382;2023-08-08T06:31:39;2.53;;;2.33;;
10005;SDS011;5042;42.626;23.382;2023-08-08T06:34:07;3.20;;;2.50;;
10005;SDS011;5042;42.626;23.382;2023-08-08T06:36:34;2.40;;;2.20;;
10005;SDS011;5042;42.626;23.382;2023-08-08T06:39:01;2.35;;;1.73;;
10005;SDS011;5042;42.626;23.382;2023-08-08T06:41:28;1.70;;;1.60;;
10005;SDS011;5042;42.626;23.382;2023-08-08T06:43:54;2.45;;;2.25;;
10005;SDS011;5042;42.626;23.382;2023-08-08T06:46:21;1.73;;;1.63;;
10005;SDS011;5042;42.626;23.382;2023-08-08T06:48:49;1.85;;;1.75;;
10005;SDS011;5042;42.626;23.382;2023-08-08T06:51:19;1.88;;;1.77;;
10005;SDS011;5042;42.626;23.382;2023-08-08T06:53:46;1.70;;;1.60;;
10005;SDS011;5042;42.626;23.382;2023-08-08T06:56:13;1.85;;;1.75;;
10005;SDS011;5042;42.626;23.382;2023-08-08T06:58:39;1.63;;;1.52;;
10005;SDS011;5042;42.626;23.382;2023-08-08T07:01:06;2.13;;;2.03;;
10005;SDS011;5042;42.626;23.382;2023-08-08T07:03:33;1.83;;;1.73;;
10005;SDS011;5042;42.626;23.382;2023-08-08T07:06:00;1.92;;;1.80;;
10005;SDS011;5042;42.626;23.382;2023-08-08T07:08:28;1.58;;;1.48;;
10005;SDS011;5042;42.626;23.382;2023-08-08T07:10:56;1.65;;;1.55;;
10005;SDS011;5042;42.626;23.382;2023-08-08T07:13:23;1.30;;;1.20;;
10005;SDS011;5042;42.626;23.382;2023-08-08T07:15:49;1.50;;;1.40;;
10005;SDS011;5042;42.626;23.382;2023-08-08T07:18:16;1.40;;;1.30;;
10005;SDS011;5042;42.626;23.382;2023-08-08T07:20:43;1.38;;;1.33;;
10005;SDS011;5042;42.626;23.382;2023-08-08T07:23:10;1.58;;;1.48;;
10005;SDS011;5042;42.626;23.382;2023-08-08T07:25:38;1.65;;;1.55;;
10005;SDS011;5042;42.626;23.382;2023-08-08T07:28:05;1.70;;;1.60;;
10005;SDS011;5042;42.626;23.382;2023-08-08T07:30:31;1.23;;;1.23;;
10005;SDS011;5042;42.626;23.382;2023-08-08T07:32:58;1.63;;;1.52;;
10005;SDS011;5042;42.626;23.382;2023-08-08T07:35:25;1.30;;;1.30;;
10005;SDS011;5042;42.626;23.382;2023-08-08T07:37:52;1.25;;;1.25;;
10005;SDS011;5042;42.626;23.382;2023-08-08T07:40:19;1.30;;;1.10;;
10005;SDS011;5042;42.626;23.382;2023-08-08T07:42:48;0.98;;;0.98;;
10005;SDS011;5042;42.626;23.382;2023-08-08T07:45:15;2.50;;;1.02;;
10005;SDS011;5042;42.626;23.382;2023-08-08T07:47:42;0.90;;;0.90;;
10005;SDS011;5042;42.626;23.382;2023-08-08T07:50:09;0.77;;;0.70;;
10005;SDS011;5042;42.626;23.382;2023-08-08T07:52:36;0.65;;;0.65;;
10005;SDS011;5042;42.626;23.382;2023-08-08T07:55:03;1.83;;;0.88;;
10005;SDS011;5042;42.626;23.382;2023-08-08T07:57:31;0.90;;;0.90;;
10005;SDS011;5042;42.626;23.382;2023-08-08T08:00:01;0.90;;;0.90;;
10005;SDS011;5042;42.626;23.382;2023-08-08T08:02:34;1.00;;;0.90;;
10005;SDS011;5042;42.626;23.382;2023-08-08T08:05:01;0.82;;;0.82;;
10005;SDS011;5042;42.626;23.382;2023-08-08T08:07:30;0.90;;;0.90;;
10005;SDS011;5042;42.626;23.382;2023-08-08T08:09:57;1.00;;;1.00;;
10005;SDS011;5042;42.626;23.382;2023-08-08T08:12:24;1.00;;;1.00;;
10005;SDS011;5042;42.626;23.382;2023-08-08T08:14:51;0.80;;;0.80;;
10005;SDS011;5042;42.626;23.382;2023-08-08T08:17:19;1.10;;;1.00;;
10005;SDS011;5042;42.626;23.382;2023-08-08T08:19:45;0.77;;;0.77;;
10005;SDS011;5042;42.626;23.382;2023-08-08T08:22:12;0.75;;;0.75;;
10005;SDS011;5042;42.626;23.382;2023-08-08T08:24:39;1.08;;;1.08;;
10005;SDS011;5042;42.626;23.382;2023-08-08T08:27:05;0.82;;;0.82;;
10005;SDS011;5042;42.626;23.382;2023-08-08T08:29:34;0.70;;;0.70;;
10005;SDS011;5042;42.626;23.382;2023-08-08T08:32:00;0.95;;;0.95;;
10005;SDS011;5042;42.626;23.382;2023-08-08T08:34:28;1.10;;;1.10;;
10005;SDS011;5042;42.626;23.382;2023-08-08T08:36:55;1.65;;;1.17;;
10005;SDS011;5042;42.626;23.382;2023-08-08T08:39:22;1.15;;;1.15;;
10005;SDS011;5042;42.626;23.382;2023-08-08T08:41:49;1.15;;;1.15;;
10005;SDS011;5042;42.626;23.382;2023-08-08T08:44:26;2.08;;;1.55;;
10005;SDS011;5042;42.626;23.382;2023-08-08T08:46:56;1.30;;;1.30;;
10005;SDS011;5042;42.626;23.382;2023-08-08T08:49:25;1.40;;;1.30;;
10005;SDS011;5042;42.626;23.382;2023-08-08T08:51:57;1.08;;;1.08;;
10005;SDS011;5042;42.626;23.382;2023-08-08T08:54:25;1.42;;;1.33;;
10005;SDS011;5042;42.626;23.382;2023-08-08T08:56:53;1.20;;;1.20;;
10005;SDS011;5042;42.626;23.382;2023-08-08T08:59:21;1.42;;;1.33;;
10005;SDS011;5042;42.626;23.382;2023-08-08T09:01:48;1.30;;;1.30;;
10005;SDS011;5042;42.626;23.382;2023-08-08T09:04:16;3.03;;;1.10;;
10005;SDS011;5042;42.626;23.382;2023-08-08T09:06:45;1.30;;;1.30;;
10005;SDS011;5042;42.626;23.382;2023-08-08T09:09:14;1.20;;;1.20;;
10005;SDS011;5042;42.626;23.382;2023-08-08T09:11:42;1.60;;;1.50;;
10005;SDS011;5042;42.626;23.382;2023-08-08T09:14:17;1.70;;;1.60;;
10005;SDS011;5042;42.626;23.382;2023-08-08T09:16:44;1.60;;;1.50;;
10005;SDS011;5042;42.626;23.382;2023-08-08T09:19:12;1.40;;;1.40;;
10005;SDS011;5042;42.626;23.382;2023-08-08T09:21:38;1.40;;;1.30;;
10005;SDS011;5042;42.626;23.382;2023-08-08T09:24:05;1.75;;;1.30;;
10005;SDS011;5042;42.626;23.382;2023-08-08T09:26:34;1.10;;;1.10;;
10005;SDS011;5042;42.626;23.382;2023-08-08T09:29:01;1.55;;;1.45;;
10005;SDS011;5042;42.626;23.382;2023-08-08T09:31:28;1.98;;;1.50;;
10005;SDS011;5042;42.626;23.382;2023-08-08T09:33:56;1.20;;;1.20;;
10005;SDS011;5042;42.626;23.382;2023-08-08T09:36:24;1.20;;;1.20;;
10005;SDS011;5042;42.626;23.382;2023-08-08T09:38:50;1.08;;;1.08;;
10005;SDS011;5042;42.626;23.382;2023-08-08T09:41:18;1.15;;;1.05;;
10005;SDS011;5042;42.626;23.382;2023-08-08T09:43:46;1.15;;;1.15;;
10005;SDS011;5042;42.626;23.382;2023-08-08T09:46:13;2.15;;;1.58;;
10005;SDS011;5042;42.626;23.382;2023-08-08T09:48:41;1.70;;;1.60;;
10005;SDS011;5042;42.626;23.382;2023-08-08T09:51:08;4.80;;;2.08;;
10005;SDS011;5042;42.626;23.382;2023-08-08T09:53:35;2.13;;;2.03;;
10005;SDS011;5042;42.626;23.382;2023-08-08T09:56:02;1.63;;;1.52;;
10005;SDS011;5042;42.626;23.382;2023-08-08T09:58:30;1.38;;;1.38;;
10005;SDS011;5042;42.626;23.382;2023-08-08T10:00:58;1.50;;;1.40;;
10005;SDS011;5042;42.626;23.382;2023-08-08T10:03:25;1.27;;;1.27;;
10005;SDS011;5042;42.626;23.382;2023-08-08T10:05:52;1.23;;;1.23;;
10005;SDS011;5042;42.626;23.382;2023-08-08T10:08:19;1.60;;;1.45;;
10005;SDS011;5042;42.626;23.382;2023-08-08T10:10:47;1.30;;;1.30;;
10005;SDS011;5042;42.626;23.382;2023-08-08T10:13:18;1.40;;;1.30;;
10005;SDS011;5042;42.626;23.382;2023-08-08T10:15:46;1.75;;;1.65;;
10005;SDS011;5042;42.626;23.382;2023-08-08T10:18:14;1.42;;;1.33;;
10005;SDS011;5042;42.626;23.382;2023-08-08T10:20:42;1.50;;;1.42;;
10005;SDS011;5042;42.626;23.382;2023-08-08T10:23:09;1.60;;;1.50;;
10005;SDS011;5042;42.626;23.382;2023-08-08T10:25:36;1.40;;;1.30;;
10005;SDS011;5042;42.626;23.382;2023-08-08T10:28:03;1.73;;;1.63;;
10005;SDS011;5042;42.626;23.382;2023-08-08T10:30:41;1.50;;;1.40;;
10005;SDS011;5042;42.626;23.382;2023-08-08T10:33:16;1.40;;;1.40;;
10005;SDS011;5042;42.626;23.382;2023-08-08T10:35:50;1.45;;;1.35;;
10005;SDS011;5042;42.626;23.382;2023-08-08T10:38:21;1.60;;;1.50;;
10005;SDS011;5042;42.626;23.382;2023-08-08T10:40:48;1.50;;;1.40;;
10005;SDS011;5042;42.626;23.382;2023-08-08T10:43:24;1.33;;;1.33;;
10005;SDS011;5042;42.626;23.382;2023-08-08T10:45:52;1.45;;;1.35;;
10005;SDS011;5042;42.626;23.382;2023-08-08T10:48:24;1.48;;;1.38;;
10005;SDS011;5042;42.626;23.382;2023-08-08T10:50:53;1.20;;;1.20;;
10005;SDS011;5042;42.626;23.382;2023-08-08T10:53:22;1.45;;;1.42;;
10005;SDS011;5042;42.626;23.382;2023-08-08T10:55:56;5.45;;;1.40;;
10005;SDS011;5042;42.626;23.382;2023-08-08T10:58:33;1.73;;;1.63;;
10005;SDS011;5042;42.626;23.382;2023-08-08T11:01:01;1.60;;;1.50;;
10005;SDS011;5042;42.626;23.382;2023-08-08T11:03:31;1.50;;;1.40;;
10005;SDS011;5042;42.626;23.382;2023-08-08T11:05:59;1.60;;;1.50;;
10005;SDS011;5042;42.626;23.382;2023-08-08T11:08:29;1.20;;;1.10;;
10005;SDS011;5042;42.626;23.382;2023-08-08T11:10:57;1.58;;;1.48;;
10005;SDS011;5042;42.626;23.382;2023-08-08T11:13:23;1.98;;;1.88;;
10005;SDS011;5042;42.626;23.382;2023-08-08T11:15:50;1.60;;;1.50;;
10005;SDS011;5042;42.626;23.382;2023-08-08T11:18:17;1.45;;;1.35;;
10005;SDS011;5042;42.626;23.382;2023-08-08T11:20:45;1.20;;;1.20;;
10005;SDS011;5042;42.626;23.382;2023-08-08T11:23:12;2.75;;;1.23;;
10005;SDS011;5042;42.626;23.382;2023-08-08T11:25:40;1.45;;;1.38;;
10005;SDS011;5042;42.626;23.382;2023-08-08T11:28:08;1.30;;;1.30;;
10005;SDS011;5042;42.626;23.382;2023-08-08T11:30:37;1.05;;;1.05;;
10005;SDS011;5042;42.626;23.382;2023-08-08T11:33:05;1.10;;;1.10;;
10005;SDS011;5042;42.626;23.382;2023-08-08T11:35:32;1.30;;;1.20;;
10005;SDS011;5042;42.626;23.382;2023-08-08T11:38:02;1.33;;;1.27;;
10005;SDS011;5042;42.626;23.382;2023-08-08T11:40:30;1.45;;;1.40;;
10005;SDS011;5042;42.626;23.382;2023-08-08T11:42:58;1.17;;;1.17;;
10005;SDS011;5042;42.626;23.382;2023-08-08T11:45:25;1.13;;;1.10;;
10005;SDS011;5042;42.626;23.382;2023-08-08T11:47:52;1.20;;;1.20;;
10005;SDS011;5042;42.626;23.382;2023-08-08T11:50:21;1.27;;;1.13;;
10005;SDS011;5042;42.626;23.382;2023-08-08T11:52:50;1.10;;;1.10;;
10005;SDS011;5042;42.626;23.382;2023-08-08T11:55:20;1.30;;;1.30;;
10005;SDS011;5042;42.626;23.382;2023-08-08T11:57:49;1.10;;;1.10;;
10005;SDS011;5042;42.626;23.382;2023-08-08T12:00:16;1.40;;;1.40;;
10005;SDS011;5042;42.626;23.382;2023-08-08T12:02:44;3.25;;;2.78;;
10005;SDS011;5042;42.626;23.382;2023-08-08T12:05:12;1.58;;;1.50;;
10005;SDS011;5042;42.626;23.382;2023-08-08T12:07:42;1.90;;;1.80;;
10005;SDS011;5042;42.626;23.382;2023-08-08T12:10:14;1.88;;;1.77;;
10005;SDS011;5042;42.626;23.382;2023-08-08T12:12:43;3.22;;;2.92;;
10005;SDS011;5042;42.626;23.382;2023-08-08T12:15:10;2.30;;;1.73;;
10005;SDS011;5042;42.626;23.382;2023-08-08T12:17:37;1.75;;;1.65;;
10005;SDS011;5042;42.626;23.382;2023-08-08T12:20:05;1.80;;;1.70;;
10005;SDS011;5042;42.626;23.382;2023-08-08T12:22:33;1.27;;;1.27;;
10005;SDS011;5042;42.626;23.382;2023-08-08T12:25:00;1.40;;;1.40;;
10005;SDS011;5042;42.626;23.382;2023-08-08T12:27:28;1.25;;;1.25;;
10005;SDS011;5042;42.626;23.382;2023-08-08T12:29:57;1.20;;;1.20;;
10005;SDS011;5042;42.626;23.382;2023-08-08T12:32:25;1.38;;;1.38;;
10005;SDS011;5042;42.626;23.382;2023-08-08T12:34:53;1.25;;;1.25;;
10005;SDS011;5042;42.626;23.382;2023-08-08T12:37:21;1.30;;;1.20;;
10005;SDS011;5042;42.626;23.382;2023-08-08T12:39:48;1.63;;;1.52;;
10005;SDS011;5042;42.626;23.382;2023-08-08T12:42:15;2.50;;;1.25;;
10005;SDS011;5042;42.626;23.382;2023-08-08T12:44:41;1.48;;;1.38;;
10005;SDS011;5042;42.626;23.382;2023-08-08T12:47:09;1.30;;;1.30;;
10005;SDS011;5042;42.626;23.382;2023-08-08T12:49:36;1.40;;;1.30;;
10005;SDS011;5042;42.626;23.382;2023-08-08T12:52:03;1.58;;;1.33;;
10005;SDS011;5042;42.626;23.382;2023-08-08T12:54:31;1.67;;;1.58;;
10005;SDS011;5042;42.626;23.382;2023-08-08T12:56:57;1.33;;;1.23;;
10005;SDS011;5042;42.626;23.382;2023-08-08T12:59:24;1.20;;;1.20;;
10005;SDS011;5042;42.626;23.382;2023-08-08T13:01:51;1.42;;;1.20;;
10005;SDS011;5042;42.626;23.382;2023-08-08T13:04:19;1.30;;;1.30;;
10005;SDS011;5042;42.626;23.382;2023-08-08T13:06:46;1.20;;;1.20;;
10005;SDS011;5042;42.626;23.382;2023-08-08T13:09:13;1.42;;;1.33;;
10005;SDS011;5042;42.626;23.382;2023-08-08T13:11:41;1.50;;;1.40;;
10005;SDS011;5042;42.626;23.382;2023-08-08T13:14:07;1.52;;;1.52;;
10005;SDS011;5042;42.626;23.382;2023-08-08T13:16:34;1.17;;;1.17;;
10005;SDS011;5042;42.626;23.382;2023-08-08T13:19:01;1.27;;;1.20;;
10005;SDS011;5042;42.626;23.382;2023-08-08T13:21:30;1.27;;;1.27;;
10005;SDS011;5042;42.626;23.382;2023-08-08T13:23:56;1.52;;;1.45;;
10005;SDS011;5042;42.626;23.382;2023-08-08T13:26:23;1.25;;;1.25;;
10005;SDS011;5042;42.626;23.382;2023-08-08T13:28:50;1.25;;;1.25;;
10005;SDS011;5042;42.626;23.382;2023-08-08T13:31:17;1.30;;;1.30;;
10005;SDS011;5042;42.626;23.382;2023-08-08T13:33:43;1.33;;;1.33;;
10005;SDS011;5042;42.626;23.382;2023-08-08T13:36:10;1.13;;;1.13;;
10005;SDS011;5042;42.626;23.382;2023-08-08T13:38:38;1.98;;;1.77;;
10005;SDS011;5042;42.626;23.382;2023-08-08T13:41:05;1.80;;;1.50;;
10005;SDS011;5042;42.626;23.382;2023-08-08T13:43:31;2.30;;;1.30;;
10005;SDS011;5042;42.626;23.382;2023-08-08T13:45:59;1.90;;;1.67;;
10005;SDS011;5042;42.626;23.382;2023-08-08T13:48:27;1.50;;;1.40;;
10005;SDS011;5042;42.626;23.382;2023-08-08T13:50:54;1.80;;;1.70;;
10005;SDS011;5042;42.626;23.382;2023-08-08T13:53:21;3.63;;;1.40;;
10005;SDS011;5042;42.626;23.382;2023-08-08T13:55:49;1.65;;;1.55;;
10005;SDS011;5042;42.626;23.382;2023-08-08T13:58:15;1.20;;;1.10;;
10005;SDS011;5042;42.626;23.382;2023-08-08T14:00:42;1.30;;;1.30;;
10005;SDS011;5042;42.626;23.382;2023-08-08T14:03:09;1.48;;;1.38;;
10005;SDS011;5042;42.626;23.382;2023-08-08T14:05:35;2.15;;;1.40;;
10005;SDS011;5042;42.626;23.382;2023-08-08T14:08:03;1.60;;;1.30;;
10005;SDS011;5042;42.626;23.382;2023-08-08T14:10:30;1.52;;;1.42;;
10005;SDS011;5042;42.626;23.382;2023-08-08T14:12:58;1.83;;;1.52;;
10005;SDS011;5042;42.626;23.382;2023-08-08T14:15:24;1.50;;;1.40;;
10005;SDS011;5042;42.626;23.382;2023-08-08T14:17:51;1.65;;;1.20;;
10005;SDS011;5042;42.626;23.382;2023-08-08T14:20:18;1.40;;;1.40;;
10005;SDS011;5042;42.626;23.382;2023-08-08T14:22:45;1.25;;;1.25;;
10005;SDS011;5042;42.626;23.382;2023-08-08T14:25:12;1.27;;;1.27;;
10005;SDS011;5042;42.626;23.382;2023-08-08T14:27:39;1.77;;;1.67;;
10005;SDS011;5042;42.626;23.382;2023-08-08T14:30:08;1.77;;;1.67;;
10005;SDS011;5042;42.626;23.382;2023-08-08T14:32:35;1.85;;;1.75;;
10005;SDS011;5042;42.626;23.382;2023-08-08T14:35:03;1.40;;;1.33;;
10005;SDS011;5042;42.626;23.382;2023-08-08T14:37:30;1.42;;;1.33;;
10005;SDS011;5042;42.626;23.382;2023-08-08T14:39:57;1.73;;;1.45;;
10005;SDS011;5042;42.626;23.382;2023-08-08T14:42:24;1.38;;;1.30;;
10005;SDS011;5042;42.626;23.382;2023-08-08T14:44:51;1.60;;;1.50;;
10005;SDS011;5042;42.626;23.382;2023-08-08T14:47:19;2.65;;;1.42;;
10005;SDS011;5042;42.626;23.382;2023-08-08T14:49:45;1.73;;;1.27;;